Time;durP1;ratioP1;P1;durP2;ratioP2;P2;SDS_P1;SDS_P2;PMS_P1;PMS_P2;Temp;Humidity;BMP_temperature;BMP_pressure;BME280_temperature;BME280_humidity;BME280_pressure;Samples;Min_cycle;Max_cycle;Signal;HPM_P1;HPM_P2
2021/09/01 00:02:13;;;;;;;0.40;0.40;;;;;;;20.37;54.36;102943.41;5004920;28;20060;-94
2021/09/01 00:04:39;;;;;;;0.10;0.10;;;;;;;20.23;54.66;102940.22;5011027;28;20092;-93
2021/09/01 00:07:07;;;;;;;0.10;0.10;;;;;;;20.25;53.86;102939.25;5004868;28;20038;-94
2021/09/01 00:09:33;;;;;;;0.00;0.00;;;;;;;20.26;53.47;102943.72;4997331;28;20393;-95
2021/09/01 00:12:00;;;;;;;0.05;0.05;;;;;;;20.27;53.44;102945.44;4995036;28;20037;-95
2021/09/01 00:14:27;;;;;;;0.63;0.63;;;;;;;20.31;53.76;102938.19;4995180;28;20041;-93
2021/09/01 00:16:53;;;;;;;0.10;0.10;;;;;;;20.30;53.62;102937.31;4994763;28;20109;-94
2021/09/01 00:19:19;;;;;;;0.10;0.10;;;;;;;20.32;53.80;102938.13;4995073;28;20041;-94
2021/09/01 00:21:46;;;;;;;0.10;0.10;;;;;;;20.33;53.72;102931.81;4995062;28;20038;-95
2021/09/01 00:24:12;;;;;;;0.10;0.10;;;;;;;20.33;53.59;102936.34;4994626;28;20034;-96
2021/09/01 00:26:39;;;;;;;0.20;0.20;;;;;;;20.31;53.60;102932.81;5003238;28;20031;-92
2021/09/01 00:29:05;;;;;;;0.10;0.10;;;;;;;20.31;53.77;102936.38;5004865;28;20030;-94
2021/09/01 00:31:32;;;;;;;0.10;0.10;;;;;;;20.32;53.78;102940.81;5012820;28;20068;-94
2021/09/01 00:33:58;;;;;;;0.10;0.10;;;;;;;20.33;53.74;102942.59;5014011;28;20499;-94
2021/09/01 00:36:25;;;;;;;0.10;0.10;;;;;;;20.34;54.00;102938.97;5014003;28;20120;-91
2021/09/01 00:38:51;;;;;;;1.98;0.98;;;;;;;20.34;53.98;102932.72;5014252;28;20033;-94
2021/09/01 00:41:20;;;;;;;0.20;0.20;;;;;;;20.34;54.69;102938.13;5014049;28;20033;-93
2021/09/01 00:43:50;;;;;;;0.20;0.20;;;;;;;20.31;54.42;102939.09;5014208;28;20109;-92
2021/09/01 00:46:17;;;;;;;0.10;0.10;;;;;;;20.33;54.36;102934.53;5014028;28;20032;-93
2021/09/01 00:48:44;;;;;;;0.00;0.00;;;;;;;20.33;55.13;102936.34;5013912;28;20050;-95
2021/09/01 00:51:10;;;;;;;0.52;0.52;;;;;;;20.35;54.44;102935.38;5013910;28;20084;-94
2021/09/01 00:53:42;;;;;;;0.00;0.00;;;;;;;20.37;54.74;102935.31;5014142;28;20029;-95
2021/09/01 00:56:09;;;;;;;;;;;;;;;20.51;54.30;102937.63;5014387;28;20030;-94
2021/09/01 00:58:37;;;;;;;0.10;0.10;;;;;;;20.35;54.34;102938.06;5014536;28;20280;-95
2021/09/01 01:01:15;;;;;;;0.10;0.10;;;;;;;20.35;54.72;102932.69;5014784;28;20049;-96
2021/09/01 01:03:46;;;;;;;0.10;0.10;;;;;;;20.33;54.49;102929.13;5015038;28;20029;-95
2021/09/01 01:06:12;;;;;;;0.10;0.10;;;;;;;20.33;54.46;102928.25;5014741;28;20037;-96
2021/09/01 01:08:39;;;;;;;0.20;0.20;;;;;;;20.31;54.68;102925.63;5015225;28;20030;-95
2021/09/01 01:11:12;;;;;;;0.57;0.57;;;;;;;20.35;54.45;102935.38;5015178;28;20037;-95
2021/09/01 01:13:39;;;;;;;0.10;0.10;;;;;;;20.29;54.64;102934.66;5015302;28;20388;-95
2021/09/01 01:16:06;;;;;;;0.03;0.03;;;;;;;20.28;54.82;102939.16;5015664;28;20037;-95
2021/09/01 01:18:33;;;;;;;0.10;0.10;;;;;;;20.28;54.68;102939.16;5015270;28;20117;-95
2021/09/01 01:20:59;;;;;;;9.95;0.68;;;;;;;20.27;54.53;102942.75;5015662;28;20048;-95
2021/09/01 01:23:25;;;;;;;0.10;0.10;;;;;;;20.26;54.60;102941.03;5016876;28;20057;-94
2021/09/01 01:25:52;;;;;;;0.30;0.30;;;;;;;20.24;54.72;102937.47;5030001;28;20034;-92
2021/09/01 01:28:18;;;;;;;0.73;0.52;;;;;;;20.22;54.59;102931.25;5035129;28;20006;-92
2021/09/01 01:30:45;;;;;;;0.10;0.10;;;;;;;20.25;55.19;102928.47;5034174;28;20042;-94
2021/09/01 01:33:13;;;;;;;2.20;0.43;;;;;;;20.24;54.93;102925.81;5035794;28;20010;-95
2021/09/01 01:35:43;;;;;;;0.10;0.10;;;;;;;20.29;54.95;102930.16;5036067;28;20018;-93
2021/09/01 01:38:13;;;;;;;0.08;0.08;;;;;;;20.30;54.74;102921.16;5033157;28;20037;-87
2021/09/01 01:40:41;;;;;;;0.10;0.10;;;;;;;20.30;54.50;102926.53;5029566;28;20037;-95
2021/09/01 01:43:07;;;;;;;0.10;0.10;;;;;;;20.27;54.63;102921.22;5020624;28;20026;-94
2021/09/01 01:45:39;;;;;;;0.10;0.10;;;;;;;20.28;54.72;102923.00;5020456;28;20062;-96
2021/09/01 01:48:07;;;;;;;0.10;0.10;;;;;;;20.25;54.65;102920.41;5017852;28;20041;-95
2021/09/01 01:50:36;;;;;;;0.10;0.10;;;;;;;20.24;54.50;102926.72;5014832;28;20037;-90
2021/09/01 01:53:03;;;;;;;0.10;0.10;;;;;;;20.25;54.58;102939.25;5014470;28;20034;-94
2021/09/01 01:55:30;;;;;;;0.20;0.20;;;;;;;20.24;54.58;102921.31;5014824;28;20092;-96
2021/09/01 01:57:56;;;;;;;0.20;0.20;;;;;;;20.25;54.50;102920.41;5017146;28;20037;-95
2021/09/01 02:00:22;;;;;;;0.10;0.10;;;;;;;20.26;54.62;102921.28;5019520;28;20034;-92
2021/09/01 02:02:49;;;;;;;0.10;0.10;;;;;;;20.29;54.73;102926.59;5037055;28;20022;-93
2021/09/01 02:05:15;;;;;;;0.10;0.10;;;;;;;20.28;54.79;102923.00;5027766;28;20030;-95
2021/09/01 02:07:42;;;;;;;0.10;0.10;;;;;;;20.28;54.60;102925.69;5017420;28;20449;-93
2021/09/01 02:10:10;;;;;;;0.32;0.32;;;;;;;20.29;54.94;102921.22;5017165;28;20116;-96
2021/09/01 02:12:38;;;;;;;0.10;0.10;;;;;;;20.28;55.20;102932.91;5016237;28;20464;-95
2021/09/01 02:15:06;;;;;;;0.00;0.00;;;;;;;20.28;54.69;102927.50;5017607;28;20030;-94
2021/09/01 02:17:33;;;;;;;0.00;0.00;;;;;;;20.23;54.52;102924.94;5016715;28;20057;-95
2021/09/01 02:20:00;;;;;;;0.10;0.10;;;;;;;20.22;54.47;102931.25;5017024;28;20385;-94
2021/09/01 02:22:26;;;;;;;0.10;0.10;;;;;;;20.22;54.51;102931.25;5017125;28;20034;-94
2021/09/01 02:24:53;;;;;;;0.38;0.38;;;;;;;20.23;54.40;102929.47;5017375;28;20124;-95
2021/09/01 02:27:20;;;;;;;0.10;0.10;;;;;;;20.21;54.46;102932.16;5017243;28;20115;-91
2021/09/01 02:29:46;;;;;;;0.10;0.10;;;;;;;20.21;54.45;102932.16;5016463;28;20473;-95
2021/09/01 02:32:13;;;;;;;0.17;0.17;;;;;;;20.16;54.56;102928.72;5016790;28;20045;-96
2021/09/01 02:34:40;;;;;;;0.10;0.10;;;;;;;20.21;54.57;102929.47;5016548;28;20116;-96
2021/09/01 02:37:07;;;;;;;0.10;0.10;;;;;;;20.11;54.50;102933.34;5016665;28;20025;-91
2021/09/01 02:39:33;;;;;;;0.10;0.10;;;;;;;20.16;54.52;102931.41;5016466;28;20168;-94
2021/09/01 02:42:00;;;;;;;0.10;0.10;;;;;;;20.15;54.54;102924.25;5016246;28;20026;-95
2021/09/01 02:44:26;;;;;;;0.10;0.10;;;;;;;20.15;54.40;102925.16;5016251;28;20030;-96
2021/09/01 02:46:53;;;;;;;0.10;0.10;;;;;;;20.14;55.52;102930.59;5016241;28;20420;-95
2021/09/01 02:49:19;;;;;;;0.70;0.70;;;;;;;20.14;54.67;102926.06;5016345;28;20452;-95
2021/09/01 02:51:46;;;;;;;0.10;0.10;;;;;;;20.13;55.03;102934.19;5016733;28;20049;-95
2021/09/01 02:54:12;;;;;;;0.05;0.05;;;;;;;20.13;54.37;102929.69;5016139;28;20042;-96
2021/09/01 02:56:39;;;;;;;0.05;0.05;;;;;;;20.02;54.41;102927.28;5016027;28;20392;-95
2021/09/01 02:59:05;;;;;;;0.10;0.10;;;;;;;20.02;54.35;102924.59;5015999;28;20030;-96
2021/09/01 03:01:32;;;;;;;0.05;0.05;;;;;;;20.04;54.41;102928.13;5015863;28;20022;-95
2021/09/01 03:03:58;;;;;;;0.25;0.25;;;;;;;20.04;53.92;102922.75;5015860;28;20030;-96
2021/09/01 03:06:24;;;;;;;0.52;0.52;;;;;;;20.06;54.18;102921.81;5015536;28;20097;-94
2021/09/01 03:08:51;;;;;;;1.75;0.57;;;;;;;20.07;54.31;102923.59;5016581;28;20022;-90
2021/09/01 03:11:17;;;;;;;0.05;0.05;;;;;;;20.08;54.27;102920.00;5015702;28;20030;-95
2021/09/01 03:13:43;;;;;;;0.10;0.10;;;;;;;20.08;54.85;102917.31;5014542;28;20029;-95
2021/09/01 03:16:10;;;;;;;0.10;0.10;;;;;;;20.08;54.43;102923.56;5014924;28;20049;-94
2021/09/01 03:18:36;;;;;;;0.00;0.00;;;;;;;20.06;53.85;102924.53;5021311;28;20037;-96
2021/09/01 03:21:03;;;;;;;0.05;0.05;;;;;;;20.08;54.42;102925.38;5025055;28;20500;-96
2021/09/01 03:23:29;;;;;;;0.10;0.10;;;;;;;20.08;54.65;102926.25;5019448;28;20070;-95
2021/09/01 03:25:55;;;;;;;0.10;0.10;;;;;;;20.09;54.89;102916.34;5016694;28;20061;-94
2021/09/01 03:28:22;;;;;;;0.10;0.10;;;;;;;20.10;54.92;102920.81;5020089;28;20034;-96
2021/09/01 03:30:48;;;;;;;0.00;0.00;;;;;;;20.08;55.43;102920.00;5015360;28;20034;-96
2021/09/01 03:33:25;;;;;;;0.20;0.20;;;;;;;20.10;54.94;102920.81;5016899;28;20424;-90
2021/09/01 03:35:59;;;;;;;0.10;0.10;;;;;;;20.07;55.00;102918.22;5016623;28;20378;-96
2021/09/01 03:38:32;;;;;;;0.13;0.13;;;;;;;20.04;54.92;102924.56;5015605;28;20092;-94
2021/09/01 03:40:58;;;;;;;0.10;0.10;;;;;;;20.03;55.35;102923.66;5015129;28;20025;-96
2021/09/01 03:43:24;;;;;;;0.17;0.17;;;;;;;20.01;54.90;102920.16;4997514;28;20057;-95
2021/09/01 03:45:54;;;;;;;0.10;0.10;;;;;;;20.03;55.27;102918.28;5011047;28;20083;-85
2021/09/01 03:48:21;;;;;;;0.10;0.10;;;;;;;20.05;55.53;102926.34;5013079;28;20377;-95
2021/09/01 03:50:48;;;;;;;0.00;0.00;;;;;;;20.10;55.26;102924.41;5015298;28;20034;-95
2021/09/01 03:53:16;;;;;;;0.40;0.40;;;;;;;20.12;55.25;102927.03;5014971;28;20492;-95
2021/09/01 03:55:42;;;;;;;0.10;0.10;;;;;;;20.11;55.26;102926.19;5014793;28;20030;-91
2021/09/01 03:58:08;;;;;;;0.10;0.10;;;;;;;20.10;55.72;102929.78;5015153;28;20033;-94
2021/09/01 04:00:35;;;;;;;0.10;0.10;;;;;;;20.11;55.67;102927.97;5014258;28;20073;-93
2021/09/01 04:03:01;;;;;;;0.10;0.10;;;;;;;20.11;56.04;102930.66;5015209;28;20131;-93
2021/09/01 04:05:27;;;;;;;0.10;0.10;;;;;;;20.10;55.92;102928.88;5013973;28;20026;-93
2021/09/01 04:07:53;;;;;;;0.28;0.28;;;;;;;20.08;55.86;102925.38;5013572;28;20030;-93
2021/09/01 04:10:20;;;;;;;0.35;0.35;;;;;;;20.08;56.32;102925.38;5014147;28;20117;-91
2021/09/01 04:12:46;;;;;;;0.32;0.32;;;;;;;20.09;56.01;102922.63;5012742;28;20030;-93
2021/09/01 04:15:12;;;;;;;0.10;0.10;;;;;;;20.10;56.12;102928.88;5014373;28;20061;-94
2021/09/01 04:17:38;;;;;;;0.10;0.10;;;;;;;20.09;56.31;102927.13;5014058;28;20117;-94
2021/09/01 04:20:05;;;;;;;0.10;0.10;;;;;;;20.08;56.01;102937.00;5014119;28;20033;-94
2021/09/01 04:22:31;;;;;;;0.10;0.10;;;;;;;20.07;56.50;102929.84;5014159;28;20468;-94
2021/09/01 04:24:58;;;;;;;0.10;0.10;;;;;;;20.07;55.88;102929.84;5013217;28;20041;-94
2021/09/01 04:27:24;;;;;;;0.13;0.13;;;;;;;20.06;56.58;102927.22;5013874;28;20022;-94
2021/09/01 04:29:50;;;;;;;0.03;0.03;;;;;;;20.01;56.50;102928.22;5014187;28;20037;-94
2021/09/01 04:32:16;;;;;;;0.00;0.00;;;;;;;20.03;55.24;102922.78;5014577;28;20052;-95
2021/09/01 04:34:43;;;;;;;0.10;0.10;;;;;;;20.02;55.08;102921.03;5014569;28;20084;-93
2021/09/01 04:37:09;;;;;;;0.10;0.10;;;;;;;20.03;55.05;102929.06;5014000;28;20072;-94
2021/09/01 04:39:35;;;;;;;0.20;0.20;;;;;;;19.93;53.94;102922.16;5014149;28;20029;-93
2021/09/01 04:42:02;;;;;;;0.10;0.10;;;;;;;19.96;54.54;102922.09;5007420;28;20484;-94
2021/09/01 04:44:29;;;;;;;1.02;0.60;;;;;;;19.97;54.34;102928.34;5001643;28;20461;-94
2021/09/01 04:46:55;;;;;;;0.05;0.05;;;;;;;19.96;54.32;102932.84;5013744;28;20041;-94
2021/09/01 04:49:21;;;;;;;0.10;0.10;;;;;;;19.96;54.32;102938.22;5013767;28;20045;-94
2021/09/01 04:51:48;;;;;;;0.20;0.20;;;;;;;20.00;54.46;102922.88;5013946;28;20485;-95
2021/09/01 04:54:14;;;;;;;0.10;0.10;;;;;;;20.00;55.12;102923.75;5014028;28;20443;-93
2021/09/01 04:56:40;;;;;;;0.10;0.10;;;;;;;20.02;54.65;102921.91;5013828;28;20030;-93
2021/09/01 04:59:06;;;;;;;0.00;0.00;;;;;;;20.04;54.47;102924.56;5014396;28;20432;-95
2021/09/01 05:01:33;;;;;;;0.10;0.10;;;;;;;20.02;54.78;102924.59;5013560;28;20034;-94
2021/09/01 05:03:59;;;;;;;0.15;0.15;;;;;;;20.03;54.50;102923.66;5014172;28;20067;-95
2021/09/01 05:06:27;;;;;;;0.10;0.10;;;;;;;20.08;54.70;102922.69;5013767;28;20034;-93
2021/09/01 05:08:54;;;;;;;0.08;0.08;;;;;;;20.07;54.99;102928.97;5013884;28;20092;-95
2021/09/01 05:11:20;;;;;;;0.08;0.08;;;;;;;20.07;54.91;102929.84;4997650;28;20038;-95
2021/09/01 05:13:47;;;;;;;0.10;0.10;;;;;;;20.06;55.13;102933.47;4995412;28;20461;-92
2021/09/01 05:16:13;;;;;;;0.10;0.10;;;;;;;20.06;55.24;102932.59;4996359;28;20030;-95
2021/09/01 05:18:39;;;;;;;0.10;0.10;;;;;;;20.07;55.42;102928.97;4998525;28;20030;-94
2021/09/01 05:21:09;;;;;;;0.10;0.10;;;;;;;20.07;56.00;102934.38;4994920;28;20039;-93
2021/09/01 05:23:35;;;;;;;0.10;0.10;;;;;;;20.08;55.25;102930.75;4998419;28;20149;-95
2021/09/01 05:26:06;;;;;;;0.43;0.43;;;;;;;20.04;55.38;102936.19;5010016;28;20128;-96
2021/09/01 05:28:34;;;;;;;0.10;0.10;;;;;;;19.96;54.58;102926.56;5007625;28;20038;-95
2021/09/01 05:31:03;;;;;;;0.08;0.08;;;;;;;19.92;54.42;102925.75;5004655;28;20026;-96
2021/09/01 05:33:34;;;;;;;0.30;0.30;;;;;;;19.96;54.67;102927.47;5003155;28;20026;-93
2021/09/01 05:36:00;;;;;;;0.10;0.10;;;;;;;19.92;54.30;102939.22;5009471;28;20029;-94
2021/09/01 05:38:26;;;;;;;0.10;0.10;;;;;;;19.94;53.83;102939.16;5004236;28;20030;-95
2021/09/01 05:40:53;;;;;;;0.10;0.10;;;;;;;19.96;54.19;102946.31;5008412;28;20030;-96
2021/09/01 05:43:21;;;;;;;0.35;0.35;;;;;;;20.01;54.15;102941.69;5009584;28;20049;-96
2021/09/01 05:45:49;;;;;;;0.10;0.10;;;;;;;20.01;54.59;102947.06;5007729;28;20031;-95
2021/09/01 05:48:18;;;;;;;0.00;0.00;;;;;;;20.02;54.68;102942.56;5005966;28;20049;-93
2021/09/01 05:50:45;;;;;;;0.10;0.10;;;;;;;20.06;54.41;102944.22;5010230;28;20038;-95
2021/09/01 05:53:12;;;;;;;0.10;0.10;;;;;;;20.04;54.06;102952.34;5010345;28;20485;-88
2021/09/01 05:55:43;;;;;;;0.10;0.10;;;;;;;20.06;54.03;102954.13;5015247;28;20030;-92
2021/09/01 05:58:13;;;;;;;0.10;0.10;;;;;;;20.08;53.97;102952.28;5016133;28;20065;-94
2021/09/01 06:00:41;;;;;;;0.20;0.20;;;;;;;20.06;53.79;102951.44;5003745;28;20040;-88
2021/09/01 06:03:31;;;;;;;0.10;0.10;;;;;;;20.20;53.79;102950.13;5002039;28;20034;-88
2021/09/01 06:06:01;;;;;;;0.10;0.10;;;;;;;20.14;53.97;102955.69;5004114;28;20447;-89
2021/09/01 06:08:32;;;;;;;0.03;0.03;;;;;;;20.16;54.16;102958.31;5002507;28;20041;-92
2021/09/01 06:11:00;;;;;;;0.20;0.20;;;;;;;20.17;53.78;102960.97;5003267;28;20121;-89
2021/09/01 06:13:27;;;;;;;0.10;0.10;;;;;;;20.21;53.74;102959.09;4999740;28;20089;-88
2021/09/01 06:15:53;;;;;;;0.47;0.47;;;;;;;20.26;53.82;102962.56;4996274;28;20026;-88
2021/09/01 06:18:19;;;;;;;0.10;0.10;;;;;;;20.29;53.60;102959.75;4996094;28;20030;-88
2021/09/01 06:20:48;;;;;;;0.10;0.10;;;;;;;20.33;53.72;102961.44;4996191;28;20133;-92
2021/09/01 06:23:15;;;;;;;0.10;0.10;;;;;;;20.38;53.98;102961.31;4996588;28;20045;-86
2021/09/01 06:25:41;;;;;;;0.10;0.10;;;;;;;20.42;53.91;102957.59;4996027;28;20034;-86
2021/09/01 06:28:08;;;;;;;0.10;0.10;;;;;;;20.48;54.23;102953.88;4996360;28;20026;-87
2021/09/01 06:30:35;;;;;;;0.10;0.10;;;;;;;20.53;54.10;102960.88;4996038;28;20081;-87
2021/09/01 06:33:02;;;;;;;0.20;0.20;;;;;;;20.57;54.01;102960.81;4996030;28;20026;-87
2021/09/01 06:35:28;;;;;;;0.10;0.10;;;;;;;20.61;54.35;102957.09;4996237;28;20037;-86
2021/09/01 06:37:55;;;;;;;0.30;0.30;;;;;;;20.66;54.77;102968.59;4996104;28;20030;-86
2021/09/01 06:40:21;;;;;;;0.00;0.00;;;;;;;20.68;54.79;102964.94;4996293;28;20040;-87
2021/09/01 06:42:47;;;;;;;5.22;1.30;;;;;;;20.72;55.16;102964.91;4996427;28;20035;-88
2021/09/01 06:45:14;;;;;;;0.10;0.10;;;;;;;20.73;54.16;102964.84;4996575;28;20064;-88
2021/09/01 06:47:50;;;;;;;0.10;0.10;;;;;;;20.81;53.59;102970.00;5014603;28;20030;-92
2021/09/01 06:50:20;;;;;;;0.20;0.20;;;;;;;20.81;53.73;102967.31;5015451;28;20169;-90
2021/09/01 06:52:47;;;;;;;0.00;0.00;;;;;;;20.84;53.50;102968.09;5015381;28;20457;-92
2021/09/01 06:55:14;;;;;;;0.10;0.10;;;;;;;20.91;54.28;102954.44;5015166;28;20041;-95
2021/09/01 06:57:41;;;;;;;0.30;0.30;;;;;;;20.94;54.42;102949.00;5014560;28;20140;-94
2021/09/01 07:00:12;;;;;;;0.00;0.00;;;;;;;20.98;54.14;102956.91;5014816;28;20068;-94
2021/09/01 07:02:38;;;;;;;0.10;0.10;;;;;;;21.07;54.28;102960.25;5014390;28;20034;-94
2021/09/01 07:05:05;;;;;;;0.05;0.05;;;;;;;21.14;53.87;102957.31;5014808;28;20034;-94
2021/09/01 07:07:32;;;;;;;0.05;0.05;;;;;;;21.18;53.75;102960.81;4995790;28;20057;-94
2021/09/01 07:09:58;;;;;;;0.00;0.00;;;;;;;21.22;53.92;102959.81;5013276;28;20465;-92
2021/09/01 07:12:25;;;;;;;0.03;0.03;;;;;;;21.27;53.53;102962.34;5015306;28;20080;-93
2021/09/01 07:14:52;;;;;;;0.10;0.10;;;;;;;21.25;54.63;102965.09;5015135;28;20034;-93
2021/09/01 07:17:18;;;;;;;0.10;0.10;;;;;;;21.29;54.42;102969.44;5015262;28;20469;-94
2021/09/01 07:19:44;;;;;;;0.52;0.52;;;;;;;21.32;54.28;102963.97;5015046;28;20029;-93
2021/09/01 07:22:11;;;;;;;0.10;0.10;;;;;;;21.36;53.91;102966.56;5014962;28;20355;-95
2021/09/01 07:24:37;;;;;;;0.10;0.10;;;;;;;21.41;54.19;102970.88;5015434;28;20396;-93
2021/09/01 07:27:04;;;;;;;0.10;0.10;;;;;;;21.46;53.84;102963.53;5015049;28;20053;-92
2021/09/01 07:29:30;;;;;;;0.10;0.10;;;;;;;21.53;54.14;102971.41;5017176;28;20034;-96
2021/09/01 07:31:57;;;;;;;0.38;0.38;;;;;;;21.57;53.92;102971.31;5014926;28;20049;-94
2021/09/01 07:34:23;;;;;;;0.40;0.40;;;;;;;21.59;52.96;102982.91;5015106;28;20080;-92
2021/09/01 07:36:49;;;;;;;0.45;0.45;;;;;;;21.61;53.06;102980.19;5013965;28;20037;-95
2021/09/01 07:39:15;;;;;;;0.77;0.40;;;;;;;;;;5014509;28;20059;-95
2021/09/01 07:41:41;;;;;;;0.10;0.10;;;;;;;21.67;53.32;102993.47;5014602;28;20077;-94
2021/09/01 07:44:08;;;;;;;0.73;0.73;;;;;;;21.72;53.45;102990.59;5014937;28;20036;-95
2021/09/01 07:46:34;;;;;;;0.10;0.10;;;;;;;21.76;53.36;102989.59;5013074;28;20444;-95
2021/09/01 07:49:01;;;;;;;0.00;0.00;;;;;;;21.78;53.73;103001.19;5014054;28;20473;-95
2021/09/01 07:51:28;;;;;;;0.10;0.10;;;;;;;21.84;53.50;103005.50;5014446;28;20041;-95
2021/09/01 07:53:54;;;;;;;0.00;0.00;;;;;;;21.86;53.11;102996.44;5014724;28;20527;-95
2021/09/01 07:56:20;;;;;;;0.05;0.05;;;;;;;21.92;53.10;102995.31;5014272;28;20057;-95
2021/09/01 07:58:48;;;;;;;0.10;0.10;;;;;;;22.03;53.31;102998.56;5014962;28;20097;-96
2021/09/01 08:01:15;;;;;;;0.13;0.13;;;;;;;22.05;51.82;102995.81;5018477;28;20038;-96
2021/09/01 08:03:41;;;;;;;0.10;0.10;;;;;;;22.11;51.59;103006.41;5014230;28;20073;-96
2021/09/01 08:06:08;;;;;;;1.17;1.08;;;;;;;22.09;49.75;103010.94;5014998;28;20040;-96
2021/09/01 08:08:34;;;;;;;0.10;0.10;;;;;;;22.13;49.86;103020.69;5013339;28;20088;-89
2021/09/01 08:11:01;;;;;;;0.17;0.17;;;;;;;22.13;49.21;103012.59;5013469;28;20099;-96
2021/09/01 08:13:27;;;;;;;0.20;0.20;;;;;;;22.15;49.16;103016.13;5016458;28;20549;-96
2021/09/01 08:15:54;;;;;;;0.00;0.00;;;;;;;22.13;50.03;103013.50;5017081;28;20396;-96
2021/09/01 08:18:20;;;;;;;0.10;0.10;;;;;;;22.04;48.14;103019.19;5022460;28;20034;-96
2021/09/01 08:20:46;;;;;;;0.00;0.00;;;;;;;22.09;48.48;103022.66;5028268;28;20092;-96
2021/09/01 08:23:12;;;;;;;0.00;0.00;;;;;;;22.06;48.74;103017.34;5033886;28;20030;-94
2021/09/01 08:25:39;;;;;;;0.10;0.10;;;;;;;22.09;49.27;103028.06;5035844;28;20110;-96
2021/09/01 08:28:05;;;;;;;0.10;0.10;;;;;;;22.03;46.81;103027.34;5027924;28;20030;-96
2021/09/01 08:30:32;;;;;;;0.30;0.30;;;;;;;22.09;47.94;103021.75;5030320;28;20056;-90
2021/09/01 08:33:00;;;;;;;0.10;0.10;;;;;;;22.14;48.23;103020.66;5037626;28;20033;-88
2021/09/01 08:35:26;;;;;;;0.10;0.10;;;;;;;22.25;48.43;103017.56;5037288;28;20034;-95
2021/09/01 08:38:07;;;;;;;0.10;0.10;;;;;;;22.42;48.50;103024.25;5037058;28;20099;-93
2021/09/01 08:40:34;;;;;;;0.10;0.10;;;;;;;22.41;48.22;103022.50;5025061;28;20053;-95
2021/09/01 08:43:02;;;;;;;0.10;0.10;;;;;;;22.49;47.79;103023.06;5029606;28;20033;-94
2021/09/01 08:45:28;;;;;;;0.10;0.10;;;;;;;22.48;47.15;103023.13;5030407;28;20029;-95
2021/09/01 08:47:56;;;;;;;0.52;0.52;;;;;;;22.59;47.39;103027.22;5029529;28;20033;-96
2021/09/01 08:50:28;;;;;;;0.10;0.10;;;;;;;22.61;47.45;103030.75;5027600;28;20181;-96
2021/09/01 08:52:56;;;;;;;0.20;0.20;;;;;;;22.68;47.04;103033.22;5028279;28;20026;-96
2021/09/01 08:55:23;;;;;;;0.15;0.15;;;;;;;22.61;46.36;103032.56;5023525;28;20033;-96
2021/09/01 08:57:49;;;;;;;0.10;0.10;;;;;;;22.69;46.37;103032.28;5023762;28;20108;-93
2021/09/01 09:00:16;;;;;;;0.75;0.75;;;;;;;22.69;46.53;103027.78;5015867;28;20457;-95
2021/09/01 09:02:54;;;;;;;0.50;0.50;;;;;;;22.78;45.24;103026.56;5014420;28;20021;-90
2021/09/01 09:05:30;;;;;;;0.10;0.10;;;;;;;22.86;46.11;103028.97;5015041;28;20033;-92
2021/09/01 09:07:57;;;;;;;0.00;0.00;;;;;;;22.80;45.24;103030.06;5016903;28;20032;-94
2021/09/01 09:10:27;;;;;;;0.10;0.10;;;;;;;22.89;44.98;103015.31;5017757;28;20034;-94
2021/09/01 09:16:06;;;;;;;0.10;0.10;;;;;;;23.20;45.64;103014.19;5082944;27;20419;-91
2021/09/01 09:18:32;;;;;;;0.10;0.10;;;;;;;23.32;45.66;103018.25;5070528;28;20037;-92
2021/09/01 09:21:20;;;;;;;0.10;0.10;;;;;;;23.45;44.78;103014.09;5069993;28;20025;-92
2021/09/01 09:23:48;;;;;;;0.30;0.30;;;;;;;23.37;45.58;103016.25;5070325;28;20562;-93
2021/09/01 09:26:25;;;;;;;1.45;0.52;;;;;;;23.33;45.21;103018.19;5069799;28;20021;-84
2021/09/01 09:29:14;;;;;;;0.30;0.30;;;;;;;23.18;45.25;103022.38;5067913;28;20032;-93
2021/09/01 09:31:43;;;;;;;0.10;0.10;;;;;;;23.10;46.03;103024.44;5069728;28;20119;-92
2021/09/01 09:34:17;;;;;;;0.00;0.00;;;;;;;23.08;46.34;103029.06;5071063;28;20035;-93
2021/09/01 09:37:05;;;;;;;0.10;0.10;;;;;;;23.18;46.49;103038.59;5069984;28;20365;-95
2021/09/01 09:39:47;;;;;;;0.10;0.10;;;;;;;23.14;46.25;103031.53;5069471;28;20029;-93
2021/09/01 09:42:30;;;;;;;0.08;0.08;;;;;;;23.13;46.25;103032.44;5065680;28;20472;-90
2021/09/01 09:50:27;;;;;;;0.10;0.10;;;;;;;22.78;48.03;103030.13;5089425;28;20447;-85
2021/09/01 09:52:53;;;;;;;0.25;0.25;;;;;;;22.73;47.98;103037.53;5070286;28;20039;-86
2021/09/01 09:55:21;;;;;;;0.38;0.38;;;;;;;22.79;48.00;103033.72;5066898;28;20033;-86
2021/09/01 09:57:57;;;;;;;0.10;0.10;;;;;;;22.92;48.06;103024.22;5050425;28;20109;-85
2021/09/01 10:00:25;;;;;;;0.10;0.10;;;;;;;23.03;48.13;103025.63;5049938;28;20052;-85
2021/09/01 10:02:52;;;;;;;0.68;0.68;;;;;;;23.13;47.86;103020.75;5048935;28;20029;-85
2021/09/01 10:05:23;;;;;;;0.20;0.20;;;;;;;23.34;47.46;103016.34;5049969;28;20033;-85
2021/09/01 10:07:49;;;;;;;0.25;0.22;;;;;;;23.62;46.91;103020.66;5050105;28;20033;-85
2021/09/01 10:10:16;;;;;;;0.10;0.10;;;;;;;23.87;46.33;103018.69;5050408;28;20033;-86
2021/09/01 10:12:47;;;;;;;0.10;0.10;;;;;;;24.02;45.20;103011.75;5050379;28;20464;-85
2021/09/01 10:15:21;;;;;;;0.30;0.30;;;;;;;24.16;45.33;103018.41;5050065;28;20472;-86
2021/09/01 10:17:50;;;;;;;2.72;0.63;;;;;;;24.21;45.07;103011.88;5050030;28;20420;-86
2021/09/01 10:20:21;;;;;;;0.00;0.00;;;;;;;24.52;45.08;103012.34;5050275;28;20033;-86
2021/09/01 10:23:04;;;;;;;0.10;0.10;;;;;;;24.74;42.78;103008.69;5050146;28;20033;-86
2021/09/01 10:25:36;;;;;;;0.10;0.10;;;;;;;24.78;42.87;102996.75;5049974;28;20464;-86
2021/09/01 10:31:45;;;;;;;0.00;0.00;;;;;;;24.71;43.20;102997.03;5090822;27;20425;-88
2021/09/01 10:34:26;;;;;;;0.43;0.43;;;;;;;24.74;42.13;103000.56;5070928;28;20082;-86
2021/09/01 10:36:53;;;;;;;0.10;0.10;;;;;;;24.65;43.44;103002.75;5054317;28;20025;-87
2021/09/01 10:39:37;;;;;;;0.08;0.08;;;;;;;24.60;44.60;103001.13;5051117;28;20021;-87
2021/09/01 10:42:31;;;;;;;0.10;0.10;;;;;;;24.49;43.79;103002.50;5050751;28;20094;-87
2021/09/01 10:44:57;;;;;;;0.08;0.08;;;;;;;24.37;45.01;103000.34;5050356;28;20025;-87
2021/09/01 10:47:24;;;;;;;0.10;0.10;;;;;;;24.23;45.04;103004.53;5044446;28;20053;-86
2021/09/01 10:50:00;;;;;;;0.10;0.10;;;;;;;24.09;43.27;103003.38;5041261;28;20026;-86
2021/09/01 10:52:46;;;;;;;0.10;0.10;;;;;;;23.98;45.29;103001.16;5037983;28;20025;-85
2021/09/01 10:55:13;;;;;;;0.10;0.10;;;;;;;23.88;45.90;103004.19;5042494;28;20080;-86
2021/09/01 10:57:39;;;;;;;0.10;0.10;;;;;;;23.82;46.02;102999.03;5041650;28;20177;-86
2021/09/01 11:00:15;;;;;;;0.10;0.10;;;;;;;23.80;47.67;102995.53;5040487;28;20444;-86
2021/09/01 11:02:56;;;;;;;0.10;0.10;;;;;;;23.66;47.31;103000.63;5030067;28;20026;-87
2021/09/01 11:05:23;;;;;;;0.10;0.10;;;;;;;23.67;47.70;102991.59;5030231;28;20096;-87
2021/09/01 11:07:56;;;;;;;0.10;0.10;;;;;;;23.72;48.19;102995.84;5029309;28;20144;-86
2021/09/01 11:10:22;;;;;;;0.10;0.10;;;;;;;23.82;48.87;102993.63;5040018;28;20480;-86
2021/09/01 11:12:58;;;;;;;0.30;0.30;;;;;;;24.01;47.63;102999.19;5037294;28;20385;-87
2021/09/01 11:15:25;;;;;;;0.10;0.10;;;;;;;24.04;46.97;102992.78;5061382;22;20465;-96
2021/09/01 11:17:51;;;;;;;0.10;0.10;;;;;;;24.15;47.70;102990.47;5043729;28;20041;-96
2021/09/01 11:20:20;;;;;;;0.25;0.25;;;;;;;24.19;46.42;102989.38;5040906;28;20026;-96
2021/09/01 11:22:46;;;;;;;0.10;0.10;;;;;;;24.26;46.74;102991.81;5048078;28;20074;-96
2021/09/01 11:25:15;;;;;;;0.05;0.05;;;;;;;24.29;47.77;102991.66;5045029;28;20033;-96
2021/09/01 11:27:53;;;;;;;0.10;0.10;;;;;;;24.41;46.96;102988.41;5048244;28;20033;-96
2021/09/01 11:30:19;;;;;;;0.15;0.15;;;;;;;24.55;46.86;102993.25;5043695;28;20423;-96
2021/09/01 11:32:52;;;;;;;0.20;0.20;;;;;;;24.81;45.77;102989.34;5046540;28;20040;-96
2021/09/01 11:35:20;;;;;;;0.10;0.10;;;;;;;24.99;45.30;102984.03;5051818;28;20057;-96
2021/09/01 11:38:00;;;;;;;0.25;0.25;;;;;;;25.20;44.84;102987.53;5038928;28;20037;-96
2021/09/01 11:40:35;;;;;;;0.22;0.22;;;;;;;25.30;44.64;102986.13;5040171;28;20062;-95
2021/09/01 11:43:21;;;;;;;0.10;0.10;;;;;;;25.23;44.75;102989.22;5033234;28;20121;-96
2021/09/01 11:45:50;;;;;;;0.40;0.40;;;;;;;25.22;44.97;102984.75;5033402;28;20399;-95